createdAt,value
2023-02-22T00:00:19.893Z,2.00
2023-02-22T00:02:48.444Z,2.00
2023-02-22T00:05:16.988Z,2.00
2023-02-22T00:07:44.713Z,2.00
2023-02-22T00:10:14.094Z,2.00
2023-02-22T00:12:42.098Z,2.00
2023-02-22T00:15:09.825Z,2.00
2023-02-22T00:17:36.437Z,2.00
2023-02-22T00:20:06.005Z,2.10
2023-02-22T00:22:33.241Z,2.00
2023-02-22T00:24:59.911Z,1.90
2023-02-22T00:27:26.520Z,1.80
2023-02-22T00:29:53.196Z,1.70
2023-02-22T00:32:19.883Z,1.70
2023-02-22T00:34:46.540Z,1.70
2023-02-22T00:37:13.191Z,1.70
2023-02-22T00:39:39.926Z,1.60
2023-02-22T00:42:06.538Z,1.60
2023-02-22T00:44:33.164Z,1.70
2023-02-22T00:46:59.781Z,1.70
2023-02-22T00:49:26.475Z,1.60
2023-02-22T00:51:53.150Z,1.60
2023-02-22T00:54:20.690Z,1.60
2023-02-22T00:56:47.377Z,1.60
2023-02-22T00:59:13.965Z,1.60
2023-02-22T01:01:40.870Z,1.60
2023-02-22T01:04:07.586Z,1.60
2023-02-22T01:06:34.573Z,1.60
2023-02-22T01:09:02.282Z,1.50
2023-02-22T01:11:29.259Z,1.50
2023-02-22T01:13:57.832Z,1.40
2023-02-22T01:16:24.451Z,1.50
2023-02-22T01:18:51.123Z,1.50
2023-02-22T01:21:18.324Z,1.50
2023-02-22T01:23:45.758Z,1.50
2023-02-22T01:26:12.456Z,1.40
2023-02-22T01:28:39.225Z,1.50
2023-02-22T01:31:06.284Z,1.40
2023-02-22T01:33:34.002Z,1.40
2023-02-22T01:36:00.745Z,1.40
2023-02-22T01:38:27.343Z,1.30
2023-02-22T01:40:54.005Z,1.30
2023-02-22T01:43:25.508Z,1.30
2023-02-22T01:45:58.025Z,1.20
2023-02-22T01:48:47.960Z,1.20
2023-02-22T01:51:17.191Z,1.10
2023-02-22T01:53:52.833Z,1.20
2023-02-22T01:56:20.280Z,1.20
2023-02-22T01:58:50.724Z,1.10
2023-02-22T02:01:18.494Z,1.10
2023-02-22T02:03:45.575Z,1.10
2023-02-22T02:06:13.576Z,1.10
2023-02-22T02:08:49.820Z,1.00
2023-02-22T02:11:19.204Z,1.00
2023-02-22T02:13:46.360Z,1.10
2023-02-22T02:16:13.129Z,1.00
2023-02-22T02:18:40.250Z,0.90
2023-02-22T02:21:19.173Z,0.90
2023-02-22T02:24:09.128Z,0.90
2023-02-22T02:26:48.082Z,0.80
2023-02-22T02:29:29.776Z,0.80
2023-02-22T02:32:15.345Z,0.90
2023-02-22T02:35:00.965Z,0.80
2023-02-22T02:37:33.650Z,0.90
2023-02-22T02:40:00.381Z,0.90
2023-02-22T02:42:32.920Z,0.90
2023-02-22T02:45:21.787Z,0.80
2023-02-22T02:47:52.082Z,0.80
2023-02-22T02:50:22.262Z,0.70
2023-02-22T02:52:49.286Z,0.70
2023-02-22T02:55:17.784Z,0.70
2023-02-22T02:57:44.979Z,0.70
2023-02-22T03:00:22.311Z,0.70
2023-02-22T03:03:01.630Z,0.70
2023-02-22T03:05:28.260Z,0.70
2023-02-22T03:08:03.688Z,0.70
2023-02-22T03:10:33.030Z,0.70
2023-02-22T03:12:59.592Z,0.70
2023-02-22T03:15:33.964Z,0.70
2023-02-22T03:18:17.787Z,0.80
2023-02-22T03:20:58.108Z,0.70
2023-02-22T03:23:27.441Z,0.70
2023-02-22T03:25:58.700Z,0.60
2023-02-22T03:28:26.667Z,0.60
2023-02-22T03:30:53.318Z,0.60
2023-02-22T03:33:33.973Z,0.60
2023-02-22T03:36:03.429Z,0.60
2023-02-22T03:38:32.120Z,0.60
2023-02-22T03:41:01.008Z,0.60
2023-02-22T03:43:32.823Z,0.60
2023-02-22T03:45:59.897Z,0.50
2023-02-22T03:48:26.484Z,0.50
2023-02-22T03:50:53.316Z,0.50
2023-02-22T03:53:20.244Z,0.50
2023-02-22T03:55:51.629Z,0.60
2023-02-22T03:58:20.679Z,0.60
2023-02-22T04:00:47.838Z,0.60
2023-02-22T04:03:14.493Z,0.50
2023-02-22T04:05:41.106Z,0.50
2023-02-22T04:08:07.746Z,0.50
2023-02-22T04:10:34.462Z,0.50
2023-02-22T04:13:01.217Z,0.70
2023-02-22T04:15:27.849Z,0.50
2023-02-22T04:17:54.581Z,0.40
2023-02-22T04:20:25.444Z,0.50
2023-02-22T04:22:53.327Z,0.40
2023-02-22T04:25:20.787Z,0.40
2023-02-22T04:27:47.706Z,0.40
2023-02-22T04:30:16.777Z,0.30
2023-02-22T04:32:43.881Z,0.20
2023-02-22T04:35:10.555Z,0.20
2023-02-22T04:37:37.171Z,0.30
2023-02-22T04:40:07.785Z,0.20
2023-02-22T04:42:34.935Z,0.20
2023-02-22T04:45:01.630Z,0.20
2023-02-22T04:47:28.257Z,0.20
2023-02-22T04:49:54.855Z,0.20
2023-02-22T04:52:21.767Z,0.20
2023-02-22T04:54:48.852Z,0.10
2023-02-22T04:57:15.632Z,0.10
2023-02-22T04:59:42.294Z,0.20
2023-02-22T05:02:08.980Z,0.20
2023-02-22T05:04:37.920Z,0.20
2023-02-22T05:07:05.387Z,0.20
2023-02-22T05:09:32.003Z,0.20
2023-02-22T05:11:58.692Z,0.10
2023-02-22T05:14:28.346Z,0.20
2023-02-22T05:16:58.354Z,0.10
2023-02-22T05:19:25.114Z,0.10
2023-02-22T05:21:51.749Z,0.10
2023-02-22T05:24:18.407Z,0.10
2023-02-22T05:26:45.742Z,0.10
2023-02-22T05:29:12.499Z,0.10
2023-02-22T05:31:39.299Z,0.10
2023-02-22T05:34:06.036Z,0.10
2023-02-22T05:36:32.692Z,0.10
2023-02-22T05:38:59.305Z,0.10
2023-02-22T05:41:25.976Z,0.20
2023-02-22T05:43:53.042Z,0.10
2023-02-22T05:46:19.706Z,0.20
2023-02-22T05:48:46.396Z,0.20
2023-02-22T05:51:13.486Z,0.30
2023-02-22T05:53:40.187Z,0.20
2023-02-22T05:56:06.978Z,0.20
2023-02-22T05:58:33.687Z,0.20
2023-02-22T06:01:02.718Z,0.10
2023-02-22T06:03:29.858Z,0.10
2023-02-22T06:05:56.585Z,0.20
2023-02-22T06:08:23.364Z,0.10
2023-02-22T06:10:50.295Z,0.10
2023-02-22T06:13:17.311Z,0.20
2023-02-22T06:15:43.955Z,0.20
2023-02-22T06:18:11.052Z,0.30
2023-02-22T06:20:37.902Z,0.30
2023-02-22T06:23:04.555Z,0.20
2023-02-22T06:25:31.897Z,0.30
2023-02-22T06:27:59.079Z,0.40
2023-02-22T06:30:26.629Z,0.50
2023-02-22T06:32:53.328Z,0.60
2023-02-22T06:35:20.008Z,0.70
2023-02-22T06:37:48.721Z,0.80
2023-02-22T06:40:15.673Z,1.00
2023-02-22T06:42:42.363Z,1.00
2023-02-22T06:45:09.401Z,1.20
2023-02-22T06:47:40.609Z,1.30
2023-02-22T06:50:07.851Z,1.50
2023-02-22T06:52:34.500Z,1.60
2023-02-22T06:55:01.193Z,1.80
2023-02-22T06:57:27.874Z,2.20
2023-02-22T06:59:54.529Z,2.50
2023-02-22T07:02:21.156Z,3.00
2023-02-22T07:04:47.773Z,3.50
2023-02-22T07:07:14.530Z,3.80
2023-02-22T07:09:41.135Z,4.20
2023-02-22T07:12:07.906Z,4.40
2023-02-22T07:14:34.501Z,4.90
2023-02-22T07:17:01.147Z,5.70
2023-02-22T07:19:27.753Z,7.20
2023-02-22T07:21:59.317Z,8.90
2023-02-22T07:24:28.393Z,10.40
2023-02-22T07:26:55.569Z,11.50
2023-02-22T07:29:24.886Z,12.10
2023-02-22T07:31:51.641Z,12.70
2023-02-22T07:34:18.342Z,13.20
2023-02-22T07:36:44.977Z,13.40
2023-02-22T07:39:11.651Z,13.80
2023-02-22T07:41:38.354Z,14.10
2023-02-22T07:44:05.046Z,14.30
2023-02-22T07:46:31.697Z,13.90
2023-02-22T07:48:58.296Z,14.20
2023-02-22T07:51:24.991Z,15.10
2023-02-22T07:53:51.605Z,15.40
2023-02-22T07:56:18.293Z,15.40
2023-02-22T07:58:45.019Z,15.30
2023-02-22T08:01:11.698Z,15.60
2023-02-22T08:03:38.578Z,15.90
2023-02-22T08:06:06.083Z,15.80
2023-02-22T08:08:32.778Z,16.10
2023-02-22T08:10:59.437Z,16.60
2023-02-22T08:13:26.061Z,17.30
2023-02-22T08:15:53.924Z,17.60
2023-02-22T08:18:21.043Z,17.80
2023-02-22T08:20:48.483Z,19.20
2023-02-22T08:23:16.048Z,20.10
2023-02-22T08:25:42.645Z,20.50
2023-02-22T08:28:10.532Z,21.20
2023-02-22T08:30:40.377Z,21.70
2023-02-22T08:33:07.460Z,22.10
2023-02-22T08:35:34.285Z,22.20
2023-02-22T08:38:02.150Z,22.30
2023-02-22T08:40:31.141Z,23.10
2023-02-22T08:42:58.083Z,23.00
2023-02-22T08:45:24.814Z,23.40
2023-02-22T08:47:51.495Z,23.70
2023-02-22T08:50:23.092Z,23.40
2023-02-22T08:52:50.892Z,24.00
2023-02-22T08:55:19.648Z,23.80
2023-02-22T08:57:46.288Z,24.10
2023-02-22T09:00:13.306Z,24.10
2023-02-22T09:02:39.921Z,23.40
2023-02-22T09:05:07.084Z,23.70
2023-02-22T09:07:33.671Z,24.30
2023-02-22T09:10:00.318Z,24.90
2023-02-22T09:12:26.966Z,26.00
2023-02-22T09:14:53.636Z,26.40
2023-02-22T09:17:20.278Z,26.60
2023-02-22T09:19:46.911Z,25.40
2023-02-22T09:22:13.570Z,24.20
2023-02-22T09:24:40.692Z,23.70
2023-02-22T09:27:09.775Z,23.50
2023-02-22T09:29:36.409Z,23.70
2023-02-22T09:32:04.427Z,23.60
2023-02-22T09:34:35.233Z,24.40
2023-02-22T09:37:01.913Z,25.20
2023-02-22T09:39:28.544Z,24.40
2023-02-22T09:42:07.147Z,23.50
2023-02-22T09:44:36.187Z,23.10
2023-02-22T09:47:04.164Z,22.10
2023-02-22T09:49:41.735Z,21.90
2023-02-22T09:52:13.489Z,21.20
2023-02-22T09:54:40.112Z,19.90
2023-02-22T09:57:16.207Z,19.00
2023-02-22T09:59:46.026Z,18.80
2023-02-22T10:02:19.905Z,19.30
2023-02-22T10:04:52.973Z,19.30
2023-02-22T10:07:39.187Z,19.60
2023-02-22T10:10:06.852Z,20.20
2023-02-22T10:12:47.294Z,20.40
2023-02-22T10:15:37.196Z,20.10
2023-02-22T10:18:15.720Z,19.90
2023-02-22T10:20:54.096Z,19.60
2023-02-22T10:23:56.033Z,20.10
2023-02-22T10:26:25.810Z,21.10
2023-02-22T10:28:52.417Z,22.30
2023-02-22T10:31:28.331Z,23.30
2023-02-22T10:34:05.760Z,23.80
2023-02-22T10:36:34.443Z,23.90
2023-02-22T10:39:11.547Z,24.30
2023-02-22T10:41:40.980Z,23.70
2023-02-22T10:44:08.048Z,23.10
2023-02-22T10:46:34.710Z,23.40
2023-02-22T10:49:04.517Z,23.80
2023-02-22T10:51:31.208Z,23.40
2023-02-22T10:53:59.550Z,22.40
2023-02-22T10:56:27.751Z,21.30
2023-02-22T10:59:02.755Z,20.20
2023-02-22T11:01:32.315Z,19.10
2023-02-22T11:04:00.483Z,18.30
2023-02-22T11:06:27.652Z,17.70
2023-02-22T11:09:14.401Z,17.00
2023-02-22T11:11:42.718Z,17.10
2023-02-22T11:14:10.871Z,17.40
2023-02-22T11:16:47.817Z,17.40
2023-02-22T11:19:20.753Z,17.80
2023-02-22T11:21:51.403Z,18.00
2023-02-22T11:26:49.309Z,18.00
2023-02-22T11:29:26.703Z,18.30
2023-02-22T11:31:54.229Z,18.60
2023-02-22T11:34:26.017Z,18.90
2023-02-22T11:36:52.645Z,19.20
2023-02-22T11:39:22.566Z,19.60
2023-02-22T11:41:52.040Z,19.70
2023-02-22T11:44:32.004Z,19.40
2023-02-22T11:47:06.797Z,19.50
2023-02-22T11:49:39.143Z,19.40
2023-02-22T11:52:08.670Z,19.40
2023-02-22T11:54:38.607Z,19.80
2023-02-22T11:57:22.304Z,20.30
2023-02-22T11:59:58.687Z,19.90
2023-02-22T12:02:28.508Z,19.40
2023-02-22T12:04:55.222Z,19.10
2023-02-22T12:07:42.218Z,19.30
2023-02-22T12:10:18.249Z,19.50
2023-02-22T12:13:03.950Z,19.70
2023-02-22T12:15:43.052Z,19.60
2023-02-22T12:18:09.702Z,19.90
2023-02-22T12:20:37.607Z,20.00
2023-02-22T12:23:04.225Z,20.10
2023-02-22T12:25:35.300Z,20.10
2023-02-22T12:28:24.926Z,19.80
2023-02-22T12:31:21.201Z,19.50
2023-02-22T12:33:57.023Z,19.20
2023-02-22T12:36:28.270Z,18.90
2023-02-22T12:38:59.714Z,19.10
2023-02-22T12:41:27.026Z,19.20
2023-02-22T12:44:05.843Z,18.70
2023-02-22T12:46:32.551Z,18.80
2023-02-22T12:49:05.168Z,18.40
2023-02-22T12:51:31.774Z,17.60
2023-02-22T12:54:11.954Z,17.70
2023-02-22T12:56:41.939Z,17.40
2023-02-22T12:59:38.221Z,18.00
2023-02-22T13:02:10.805Z,18.50
2023-02-22T13:04:37.625Z,18.80
2023-02-22T13:07:15.275Z,18.90
2023-02-22T13:10:04.962Z,19.00
2023-02-22T13:12:37.486Z,18.70
2023-02-22T13:15:17.112Z,18.70
2023-02-22T13:17:52.812Z,19.00
2023-02-22T13:20:45.565Z,19.10
2023-02-22T13:23:19.936Z,19.50
2023-02-22T13:25:55.184Z,19.30
2023-02-22T13:28:21.998Z,19.10
2023-02-22T13:30:56.999Z,19.00
2023-02-22T13:33:29.423Z,18.70
2023-02-22T13:35:56.153Z,18.70
2023-02-22T13:38:28.917Z,18.70
2023-02-22T13:41:14.682Z,19.00
2023-02-22T13:43:49.964Z,19.20
2023-02-22T13:46:34.897Z,19.10
2023-02-22T13:49:16.549Z,18.20
2023-02-22T13:51:43.176Z,18.10
2023-02-22T13:54:29.954Z,18.20
2023-02-22T13:56:57.178Z,18.20
2023-02-22T13:59:29.938Z,17.90
2023-02-22T14:01:57.456Z,17.90
2023-02-22T14:04:24.080Z,17.90
2023-02-22T14:06:51.265Z,17.90
2023-02-22T14:09:37.835Z,17.70
2023-02-22T14:12:04.591Z,17.60
2023-02-22T14:14:31.239Z,17.60
2023-02-22T14:17:24.372Z,17.70
2023-02-22T14:20:20.161Z,17.70
2023-02-22T14:22:50.970Z,17.30
2023-02-22T14:25:36.784Z,17.20
2023-02-22T14:28:05.373Z,17.10
2023-02-22T14:30:33.685Z,16.80
2023-02-22T14:33:00.710Z,16.90
2023-02-22T14:35:49.143Z,16.80
2023-02-22T14:38:19.516Z,16.70
2023-02-22T14:40:48.540Z,16.60
2023-02-22T14:43:20.820Z,16.60
2023-02-22T14:45:54.882Z,16.50
2023-02-22T14:48:39.305Z,16.40
2023-02-22T14:51:21.903Z,16.50
2023-02-22T14:53:51.602Z,16.20
2023-02-22T14:56:23.087Z,16.20
2023-02-22T14:58:54.984Z,16.10
2023-02-22T15:01:25.456Z,16.00
2023-02-22T15:04:07.243Z,16.00
2023-02-22T15:06:35.357Z,16.00
2023-02-22T15:09:06.965Z,16.00
2023-02-22T15:11:33.722Z,15.90
2023-02-22T15:14:01.331Z,15.80
2023-02-22T15:16:29.583Z,15.70
2023-02-22T15:18:58.060Z,15.70
2023-02-22T15:21:25.969Z,15.70
2023-02-22T15:23:54.710Z,15.70
2023-02-22T15:26:21.341Z,15.60
2023-02-22T15:28:48.053Z,15.50
2023-02-22T15:31:16.253Z,15.40
2023-02-22T15:33:43.112Z,15.30
2023-02-22T15:36:14.629Z,15.30
2023-02-22T15:38:43.156Z,15.20
2023-02-22T15:41:20.587Z,15.10
2023-02-22T15:43:57.435Z,14.90
2023-02-22T15:46:24.085Z,14.70
2023-02-22T15:49:09.492Z,14.70
2023-02-22T15:51:37.496Z,14.70
2023-02-22T15:54:07.975Z,14.70
2023-02-22T15:56:37.779Z,14.60
2023-02-22T15:59:15.137Z,14.60
2023-02-22T16:01:44.472Z,14.50
2023-02-22T16:04:21.659Z,14.50
2023-02-22T16:06:48.817Z,14.50
2023-02-22T16:09:25.356Z,14.40
2023-02-22T16:12:08.024Z,14.30
2023-02-22T16:14:34.600Z,14.30
2023-02-22T16:17:11.170Z,14.20
2023-02-22T16:19:37.924Z,14.20
2023-02-22T16:22:06.378Z,14.10
2023-02-22T16:24:34.292Z,13.90
2023-02-22T16:27:02.041Z,13.90
2023-02-22T16:29:28.754Z,13.70
2023-02-22T16:31:56.631Z,13.60
2023-02-22T16:34:23.396Z,13.50
2023-02-22T16:36:53.137Z,13.40
2023-02-22T16:39:24.342Z,13.30
2023-02-22T16:41:51.372Z,13.20
2023-02-22T16:44:18.142Z,13.10
2023-02-22T16:46:45.070Z,13.00
2023-02-22T16:49:13.042Z,13.00
2023-02-22T16:51:46.029Z,12.90
2023-02-22T16:54:14.123Z,12.70
2023-02-22T16:56:41.127Z,12.70
2023-02-22T16:59:10.501Z,12.60
2023-02-22T17:01:37.165Z,12.50
2023-02-22T17:04:14.444Z,12.40
2023-02-22T17:06:41.292Z,12.30
2023-02-22T17:09:08.049Z,12.30
2023-02-22T17:11:35.654Z,12.20
2023-02-22T17:14:02.554Z,12.20
2023-02-22T17:16:29.268Z,12.20
2023-02-22T17:18:56.228Z,12.00
2023-02-22T17:21:23.114Z,11.90
2023-02-22T17:23:50.225Z,11.80
2023-02-22T17:26:17.767Z,11.60
2023-02-22T17:28:44.742Z,11.50
2023-02-22T17:31:17.984Z,11.40
2023-02-22T17:33:44.826Z,11.40
2023-02-22T17:36:13.275Z,11.30
2023-02-22T17:38:41.728Z,11.20
2023-02-22T17:41:08.893Z,11.10
2023-02-22T17:43:35.658Z,10.90
2023-02-22T17:46:07.993Z,10.80
2023-02-22T17:48:35.290Z,10.70
2023-02-22T17:51:09.669Z,10.50
2023-02-22T17:53:36.954Z,10.30
2023-02-22T17:56:07.630Z,10.10
2023-02-22T17:58:34.598Z,10.00
2023-02-22T18:01:01.346Z,10.00
2023-02-22T18:03:29.167Z,9.90
2023-02-22T18:05:59.449Z,9.80
2023-02-22T18:08:27.230Z,9.70
2023-02-22T18:10:56.515Z,9.40
2023-02-22T18:13:24.544Z,9.20
2023-02-22T18:15:51.501Z,9.10
2023-02-22T18:18:18.295Z,9.00
2023-02-22T18:20:46.458Z,9.00
2023-02-22T18:23:17.330Z,8.90
2023-02-22T18:26:08.703Z,8.80
2023-02-22T18:28:36.154Z,8.60
2023-02-22T18:31:06.290Z,8.50
2023-02-22T18:33:33.001Z,8.40
2023-02-22T18:36:00.069Z,8.30
2023-02-22T18:38:26.844Z,8.20
2023-02-22T18:41:04.000Z,8.20
2023-02-22T18:43:37.102Z,8.00
2023-02-22T18:46:07.805Z,8.00
2023-02-22T18:48:34.603Z,7.80
2023-02-22T18:51:02.165Z,7.80
2023-02-22T18:53:29.402Z,7.60
2023-02-22T18:55:56.112Z,7.50
2023-02-22T18:58:22.834Z,7.40
2023-02-22T19:00:49.503Z,7.30
2023-02-22T19:03:16.189Z,7.20
2023-02-22T19:05:42.814Z,7.20
2023-02-22T19:08:11.376Z,7.20
2023-02-22T19:10:38.767Z,7.10
2023-02-22T19:13:10.672Z,7.00
2023-02-22T19:15:38.229Z,7.00
2023-02-22T19:18:04.957Z,7.00
2023-02-22T19:20:33.307Z,7.00
2023-02-22T19:23:00.764Z,6.90
2023-02-22T19:25:27.799Z,7.00
2023-02-22T19:27:57.768Z,6.90
2023-02-22T19:30:25.112Z,6.90
2023-02-22T19:32:51.876Z,6.90
2023-02-22T19:35:26.353Z,6.90
2023-02-22T19:37:53.912Z,6.90
2023-02-22T19:40:22.037Z,6.90
2023-02-22T19:42:50.113Z,6.90
2023-02-22T19:45:18.464Z,6.90
2023-02-22T19:47:46.462Z,6.80
2023-02-22T19:50:13.898Z,6.80
2023-02-22T19:52:40.631Z,6.90
2023-02-22T19:55:12.710Z,6.90
2023-02-22T19:57:40.555Z,7.00
2023-02-22T20:00:11.136Z,7.00
2023-02-22T20:02:40.962Z,7.00
2023-02-22T20:05:10.186Z,7.10
2023-02-22T20:07:37.519Z,7.10
2023-02-22T20:10:05.096Z,7.10
2023-02-22T20:12:31.829Z,7.10
2023-02-22T20:14:58.545Z,7.10
2023-02-22T20:17:25.606Z,7.10
2023-02-22T20:19:53.456Z,7.00
2023-02-22T20:22:20.885Z,6.90
2023-02-22T20:24:48.514Z,7.00
2023-02-22T20:27:15.420Z,6.90
2023-02-22T20:29:42.441Z,7.00
2023-02-22T20:32:11.873Z,7.10
2023-02-22T20:34:38.618Z,7.00
2023-02-22T20:37:05.416Z,7.10
2023-02-22T20:39:32.178Z,7.00
2023-02-22T20:42:03.511Z,7.00
2023-02-22T20:44:30.173Z,7.10
2023-02-22T20:46:56.874Z,7.00
2023-02-22T20:49:23.517Z,7.00
2023-02-22T20:51:50.278Z,7.00
2023-02-22T20:54:17.217Z,6.90
2023-02-22T20:56:47.008Z,6.90
2023-02-22T20:59:15.154Z,6.90
2023-02-22T21:01:42.328Z,6.90
2023-02-22T21:04:10.067Z,6.90
2023-02-22T21:06:37.305Z,6.90
2023-02-22T21:09:07.345Z,7.00
2023-02-22T21:11:34.571Z,7.00
2023-02-22T21:14:02.084Z,7.00
2023-02-22T21:16:30.520Z,7.00
2023-02-22T21:18:59.250Z,7.00
2023-02-22T21:21:26.584Z,7.00
2023-02-22T21:23:54.493Z,6.90
2023-02-22T21:26:23.620Z,6.90
2023-02-22T21:28:53.894Z,6.90
2023-02-22T21:31:22.243Z,6.80
2023-02-22T21:33:50.613Z,6.80
2023-02-22T21:36:18.132Z,6.70
2023-02-22T21:38:46.006Z,6.70
2023-02-22T21:41:13.257Z,6.70
2023-02-22T21:43:40.124Z,6.70
2023-02-22T21:46:07.471Z,6.70
2023-02-22T21:48:34.836Z,6.70
2023-02-22T21:51:13.904Z,6.60
2023-02-22T21:53:45.839Z,6.60
2023-02-22T21:56:15.846Z,6.50
2023-02-22T21:58:45.924Z,6.40
2023-02-22T22:01:17.228Z,6.40
2023-02-22T22:03:44.707Z,6.40
2023-02-22T22:06:13.552Z,6.40
2023-02-22T22:08:41.370Z,6.40
2023-02-22T22:11:09.329Z,6.40
2023-02-22T22:13:37.620Z,6.40
2023-02-22T22:16:08.533Z,6.30
2023-02-22T22:18:38.993Z,6.30
2023-02-22T22:21:08.983Z,6.30
2023-02-22T22:23:35.649Z,6.30
2023-02-22T22:26:02.561Z,6.20
2023-02-22T22:28:31.452Z,6.20
2023-02-22T22:30:58.318Z,6.10
2023-02-22T22:33:25.041Z,6.00
2023-02-22T22:35:51.841Z,6.00
2023-02-22T22:38:18.535Z,6.00
2023-02-22T22:40:50.862Z,6.00
2023-02-22T22:43:17.478Z,6.00
2023-02-22T22:45:44.176Z,5.90
2023-02-22T22:48:14.812Z,6.00
2023-02-22T22:50:46.484Z,6.00
2023-02-22T22:53:13.307Z,5.90
2023-02-22T22:55:43.517Z,5.90
2023-02-22T22:58:10.196Z,5.90
2023-02-22T23:00:37.854Z,5.90
2023-02-22T23:03:05.716Z,5.90
2023-02-22T23:05:37.717Z,6.00
2023-02-22T23:08:10.571Z,6.10
2023-02-22T23:10:40.682Z,6.10
2023-02-22T23:13:11.083Z,6.10
2023-02-22T23:15:43.977Z,6.10
2023-02-22T23:18:10.610Z,6.20
2023-02-22T23:20:38.974Z,6.20
2023-02-22T23:23:06.136Z,6.20
2023-02-22T23:25:33.334Z,6.30
2023-02-22T23:28:00.036Z,6.30
2023-02-22T23:30:27.005Z,6.30
2023-02-22T23:32:54.106Z,6.30
2023-02-22T23:35:20.699Z,6.30
2023-02-22T23:37:52.986Z,6.30
2023-02-22T23:40:19.655Z,6.30
2023-02-22T23:42:48.040Z,6.30
2023-02-22T23:45:22.617Z,6.30
2023-02-22T23:47:56.453Z,6.30
2023-02-22T23:50:27.199Z,6.30
2023-02-22T23:52:57.214Z,6.40
2023-02-22T23:55:28.310Z,6.40
2023-02-22T23:58:01.114Z,6.40
